sensor_id;sensor_type;location;lat;lon;timestamp;P1;durP1;ratioP1;P2;durP2;ratioP2
79697;SDS011;69168;42.708;23.286;2023-07-13T00:00:25;9.98;;;5.25;;
79697;SDS011;69168;42.708;23.286;2023-07-13T00:05:19;6.90;;;5.32;;
79697;SDS011;69168;42.708;23.286;2023-07-13T00:07:48;10.32;;;4.93;;
79697;SDS011;69168;42.708;23.286;2023-07-13T00:10:14;13.32;;;4.90;;
79697;SDS011;69168;42.708;23.286;2023-07-13T00:12:40;7.10;;;4.20;;
79697;SDS011;69168;42.708;23.286;2023-07-13T00:15:09;6.95;;;5.00;;
79697;SDS011;69168;42.708;23.286;2023-07-13T00:17:37;9.50;;;4.63;;
79697;SDS011;69168;42.708;23.286;2023-07-13T00:20:04;7.07;;;5.05;;
79697;SDS011;69168;42.708;23.286;2023-07-13T00:22:30;11.23;;;7.55;;
79697;SDS011;69168;42.708;23.286;2023-07-13T00:24:56;9.02;;;5.97;;
79697;SDS011;69168;42.708;23.286;2023-07-13T00:27:22;7.28;;;4.88;;
79697;SDS011;69168;42.708;23.286;2023-07-13T00:29:48;8.50;;;5.50;;
79697;SDS011;69168;42.708;23.286;2023-07-13T00:32:13;8.07;;;5.40;;
79697;SDS011;69168;42.708;23.286;2023-07-13T00:34:39;10.80;;;4.80;;
79697;SDS011;69168;42.708;23.286;2023-07-13T00:37:05;9.30;;;5.63;;
79697;SDS011;69168;42.708;23.286;2023-07-13T00:39:33;9.68;;;5.63;;
79697;SDS011;69168;42.708;23.286;2023-07-13T00:41:59;7.72;;;6.47;;
79697;SDS011;69168;42.708;23.286;2023-07-13T00:44:26;8.35;;;6.53;;
79697;SDS011;69168;42.708;23.286;2023-07-13T00:46:51;8.80;;;6.07;;
79697;SDS011;69168;42.708;23.286;2023-07-13T00:49:19;11.10;;;6.78;;
79697;SDS011;69168;42.708;23.286;2023-07-13T00:54:15;36.35;;;30.58;;
79697;SDS011;69168;42.708;23.286;2023-07-13T00:56:45;8.00;;;6.80;;
79697;SDS011;69168;42.708;23.286;2023-07-13T00:59:14;7.93;;;5.85;;
79697;SDS011;69168;42.708;23.286;2023-07-13T01:01:42;7.13;;;5.40;;
79697;SDS011;69168;42.708;23.286;2023-07-13T01:04:07;6.63;;;5.63;;
79697;SDS011;69168;42.708;23.286;2023-07-13T01:06:34;9.48;;;5.78;;
79697;SDS011;69168;42.708;23.286;2023-07-13T01:09:01;46.33;;;32.22;;
79697;SDS011;69168;42.708;23.286;2023-07-13T01:11:27;12.07;;;10.60;;
79697;SDS011;69168;42.708;23.286;2023-07-13T01:13:53;13.82;;;10.27;;
79697;SDS011;69168;42.708;23.286;2023-07-13T01:16:24;9.68;;;6.38;;
79697;SDS011;69168;42.708;23.286;2023-07-13T01:21:17;6.53;;;5.32;;
79697;SDS011;69168;42.708;23.286;2023-07-13T01:23:44;6.93;;;5.40;;
79697;SDS011;69168;42.708;23.286;2023-07-13T01:26:10;7.95;;;5.20;;
79697;SDS011;69168;42.708;23.286;2023-07-13T01:28:36;6.72;;;5.07;;
79697;SDS011;69168;42.708;23.286;2023-07-13T01:31:03;8.77;;;5.65;;
79697;SDS011;69168;42.708;23.286;2023-07-13T01:35:54;8.68;;;5.68;;
79697;SDS011;69168;42.708;23.286;2023-07-13T01:38:22;7.30;;;5.35;;
79697;SDS011;69168;42.708;23.286;2023-07-13T01:43:14;9.88;;;5.50;;
79697;SDS011;69168;42.708;23.286;2023-07-13T01:45:39;8.45;;;5.45;;
79697;SDS011;69168;42.708;23.286;2023-07-13T01:48:05;7.22;;;5.70;;
79697;SDS011;69168;42.708;23.286;2023-07-13T01:50:32;7.47;;;4.93;;
79697;SDS011;69168;42.708;23.286;2023-07-13T01:52:58;8.70;;;6.00;;
79697;SDS011;69168;42.708;23.286;2023-07-13T01:55:23;6.30;;;5.25;;
79697;SDS011;69168;42.708;23.286;2023-07-13T01:57:49;9.38;;;5.65;;
79697;SDS011;69168;42.708;23.286;2023-07-13T02:00:14;7.22;;;5.40;;
79697;SDS011;69168;42.708;23.286;2023-07-13T02:02:40;10.73;;;6.35;;
79697;SDS011;69168;42.708;23.286;2023-07-13T02:05:06;6.25;;;5.22;;
79697;SDS011;69168;42.708;23.286;2023-07-13T02:07:32;8.50;;;5.20;;
79697;SDS011;69168;42.708;23.286;2023-07-13T02:09:57;8.82;;;5.55;;
79697;SDS011;69168;42.708;23.286;2023-07-13T02:12:23;9.88;;;5.68;;
79697;SDS011;69168;42.708;23.286;2023-07-13T02:14:48;7.88;;;4.93;;
79697;SDS011;69168;42.708;23.286;2023-07-13T02:17:14;10.25;;;5.70;;
79697;SDS011;69168;42.708;23.286;2023-07-13T02:19:39;9.07;;;6.35;;
79697;SDS011;69168;42.708;23.286;2023-07-13T02:22:05;12.52;;;6.63;;
79697;SDS011;69168;42.708;23.286;2023-07-13T02:24:31;10.20;;;6.88;;
79697;SDS011;69168;42.708;23.286;2023-07-13T02:26:57;9.25;;;6.43;;
79697;SDS011;69168;42.708;23.286;2023-07-13T02:29:22;9.20;;;6.25;;
79697;SDS011;69168;42.708;23.286;2023-07-13T02:31:48;8.63;;;5.68;;
79697;SDS011;69168;42.708;23.286;2023-07-13T02:34:13;10.52;;;8.07;;
79697;SDS011;69168;42.708;23.286;2023-07-13T02:36:39;16.10;;;11.43;;
79697;SDS011;69168;42.708;23.286;2023-07-13T02:39:05;28.58;;;24.52;;
79697;SDS011;69168;42.708;23.286;2023-07-13T02:41:32;9.80;;;6.53;;
79697;SDS011;69168;42.708;23.286;2023-07-13T02:43:57;26.58;;;19.23;;
79697;SDS011;69168;42.708;23.286;2023-07-13T02:46:31;9.63;;;7.25;;
79697;SDS011;69168;42.708;23.286;2023-07-13T02:48:58;9.63;;;7.40;;
79697;SDS011;69168;42.708;23.286;2023-07-13T02:51:23;7.82;;;6.72;;
79697;SDS011;69168;42.708;23.286;2023-07-13T02:53:49;8.35;;;6.53;;
79697;SDS011;69168;42.708;23.286;2023-07-13T02:56:14;13.57;;;8.13;;
79697;SDS011;69168;42.708;23.286;2023-07-13T02:58:40;24.95;;;17.92;;
79697;SDS011;69168;42.708;23.286;2023-07-13T03:01:06;14.75;;;8.75;;
79697;SDS011;69168;42.708;23.286;2023-07-13T03:03:33;9.68;;;7.00;;
79697;SDS011;69168;42.708;23.286;2023-07-13T03:05:59;11.02;;;7.35;;
79697;SDS011;69168;42.708;23.286;2023-07-13T03:08:27;12.73;;;8.48;;
79697;SDS011;69168;42.708;23.286;2023-07-13T03:10:59;32.22;;;21.27;;
79697;SDS011;69168;42.708;23.286;2023-07-13T03:13:26;33.15;;;22.00;;
79697;SDS011;69168;42.708;23.286;2023-07-13T03:15:51;13.75;;;8.60;;
79697;SDS011;69168;42.708;23.286;2023-07-13T03:18:16;10.02;;;8.77;;
79697;SDS011;69168;42.708;23.286;2023-07-13T03:20:42;9.20;;;8.15;;
79697;SDS011;69168;42.708;23.286;2023-07-13T03:23:07;12.52;;;7.93;;
79697;SDS011;69168;42.708;23.286;2023-07-13T03:25:33;10.07;;;7.97;;
79697;SDS011;69168;42.708;23.286;2023-07-13T03:27:58;8.75;;;7.82;;
79697;SDS011;69168;42.708;23.286;2023-07-13T03:30:23;11.27;;;8.25;;
79697;SDS011;69168;42.708;23.286;2023-07-13T03:32:49;21.83;;;14.25;;
79697;SDS011;69168;42.708;23.286;2023-07-13T03:35:14;10.93;;;8.77;;
79697;SDS011;69168;42.708;23.286;2023-07-13T03:37:40;16.77;;;10.95;;
79697;SDS011;69168;42.708;23.286;2023-07-13T03:40:07;16.40;;;12.77;;
79697;SDS011;69168;42.708;23.286;2023-07-13T03:42:33;13.38;;;8.95;;
79697;SDS011;69168;42.708;23.286;2023-07-13T03:44:59;12.30;;;8.98;;
79697;SDS011;69168;42.708;23.286;2023-07-13T03:47:24;23.85;;;16.13;;
79697;SDS011;69168;42.708;23.286;2023-07-13T03:49:50;25.83;;;18.30;;
79697;SDS011;69168;42.708;23.286;2023-07-13T03:52:15;14.75;;;10.95;;
79697;SDS011;69168;42.708;23.286;2023-07-13T03:54:40;17.08;;;11.80;;
79697;SDS011;69168;42.708;23.286;2023-07-13T03:57:06;13.32;;;8.07;;
79697;SDS011;69168;42.708;23.286;2023-07-13T03:59:34;13.15;;;9.55;;
79697;SDS011;69168;42.708;23.286;2023-07-13T04:02:00;10.60;;;8.65;;
79697;SDS011;69168;42.708;23.286;2023-07-13T04:04:26;14.02;;;8.60;;
79697;SDS011;69168;42.708;23.286;2023-07-13T04:06:51;19.40;;;12.27;;
79697;SDS011;69168;42.708;23.286;2023-07-13T04:09:18;14.70;;;10.27;;
79697;SDS011;69168;42.708;23.286;2023-07-13T04:11:44;15.32;;;9.13;;
79697;SDS011;69168;42.708;23.286;2023-07-13T04:14:09;17.75;;;10.63;;
79697;SDS011;69168;42.708;23.286;2023-07-13T04:16:35;15.85;;;10.10;;
79697;SDS011;69168;42.708;23.286;2023-07-13T04:19:00;14.75;;;10.45;;
79697;SDS011;69168;42.708;23.286;2023-07-13T04:21:27;15.85;;;11.23;;
79697;SDS011;69168;42.708;23.286;2023-07-13T04:23:54;26.55;;;13.45;;
79697;SDS011;69168;42.708;23.286;2023-07-13T04:26:20;14.80;;;9.70;;
79697;SDS011;69168;42.708;23.286;2023-07-13T04:28:46;20.77;;;12.55;;
79697;SDS011;69168;42.708;23.286;2023-07-13T04:31:12;14.18;;;10.25;;
79697;SDS011;69168;42.708;23.286;2023-07-13T04:33:38;12.48;;;8.18;;
79697;SDS011;69168;42.708;23.286;2023-07-13T04:36:04;14.55;;;10.27;;
79697;SDS011;69168;42.708;23.286;2023-07-13T04:38:30;16.05;;;9.60;;
79697;SDS011;69168;42.708;23.286;2023-07-13T04:40:58;17.17;;;11.60;;
79697;SDS011;69168;42.708;23.286;2023-07-13T04:43:26;17.33;;;9.82;;
79697;SDS011;69168;42.708;23.286;2023-07-13T04:45:51;14.00;;;8.85;;
79697;SDS011;69168;42.708;23.286;2023-07-13T04:48:18;13.50;;;9.55;;
79697;SDS011;69168;42.708;23.286;2023-07-13T04:50:45;13.05;;;9.25;;
79697;SDS011;69168;42.708;23.286;2023-07-13T04:53:11;17.88;;;10.43;;
79697;SDS011;69168;42.708;23.286;2023-07-13T04:55:37;21.67;;;13.80;;
79697;SDS011;69168;42.708;23.286;2023-07-13T04:58:02;32.05;;;21.80;;
79697;SDS011;69168;42.708;23.286;2023-07-13T05:00:28;16.38;;;9.88;;
79697;SDS011;69168;42.708;23.286;2023-07-13T05:02:57;38.83;;;26.33;;
79697;SDS011;69168;42.708;23.286;2023-07-13T05:05:24;19.42;;;12.82;;
79697;SDS011;69168;42.708;23.286;2023-07-13T05:07:50;23.15;;;16.10;;
79697;SDS011;69168;42.708;23.286;2023-07-13T05:10:16;19.58;;;13.13;;
79697;SDS011;69168;42.708;23.286;2023-07-13T05:12:42;40.25;;;25.35;;
79697;SDS011;69168;42.708;23.286;2023-07-13T05:15:07;18.98;;;13.05;;
79697;SDS011;69168;42.708;23.286;2023-07-13T05:17:33;19.83;;;12.63;;
79697;SDS011;69168;42.708;23.286;2023-07-13T05:19:59;24.73;;;14.27;;
79697;SDS011;69168;42.708;23.286;2023-07-13T05:22:24;14.40;;;9.75;;
79697;SDS011;69168;42.708;23.286;2023-07-13T05:24:50;18.77;;;13.38;;
79697;SDS011;69168;42.708;23.286;2023-07-13T05:27:15;19.45;;;10.45;;
79697;SDS011;69168;42.708;23.286;2023-07-13T05:29:40;15.27;;;9.25;;
79697;SDS011;69168;42.708;23.286;2023-07-13T05:32:06;20.00;;;10.43;;
79697;SDS011;69168;42.708;23.286;2023-07-13T05:34:31;21.88;;;13.07;;
79697;SDS011;69168;42.708;23.286;2023-07-13T05:36:57;14.48;;;9.25;;
79697;SDS011;69168;42.708;23.286;2023-07-13T05:39:22;14.13;;;8.55;;
79697;SDS011;69168;42.708;23.286;2023-07-13T05:41:48;11.57;;;8.15;;
79697;SDS011;69168;42.708;23.286;2023-07-13T05:44:14;16.92;;;8.80;;
79697;SDS011;69168;42.708;23.286;2023-07-13T05:46:39;19.20;;;12.27;;
79697;SDS011;69168;42.708;23.286;2023-07-13T05:49:05;39.90;;;28.80;;
79697;SDS011;69168;42.708;23.286;2023-07-13T05:51:30;44.13;;;31.10;;
79697;SDS011;69168;42.708;23.286;2023-07-13T05:53:55;33.00;;;26.45;;
79697;SDS011;69168;42.708;23.286;2023-07-13T05:56:21;22.13;;;14.57;;
79697;SDS011;69168;42.708;23.286;2023-07-13T05:58:47;21.25;;;11.52;;
79697;SDS011;69168;42.708;23.286;2023-07-13T06:01:14;13.18;;;8.88;;
79697;SDS011;69168;42.708;23.286;2023-07-13T06:03:41;13.18;;;8.48;;
79697;SDS011;69168;42.708;23.286;2023-07-13T06:06:07;16.60;;;9.85;;
79697;SDS011;69168;42.708;23.286;2023-07-13T06:08:35;19.15;;;11.82;;
79697;SDS011;69168;42.708;23.286;2023-07-13T06:11:01;17.50;;;12.43;;
79697;SDS011;69168;42.708;23.286;2023-07-13T06:13:28;19.58;;;10.55;;
79697;SDS011;69168;42.708;23.286;2023-07-13T06:15:54;15.30;;;10.10;;
79697;SDS011;69168;42.708;23.286;2023-07-13T06:18:19;17.27;;;11.50;;
79697;SDS011;69168;42.708;23.286;2023-07-13T06:20:44;25.58;;;14.85;;
79697;SDS011;69168;42.708;23.286;2023-07-13T06:23:10;15.13;;;11.57;;
79697;SDS011;69168;42.708;23.286;2023-07-13T06:25:35;19.60;;;12.63;;
79697;SDS011;69168;42.708;23.286;2023-07-13T06:28:01;12.48;;;10.02;;
79697;SDS011;69168;42.708;23.286;2023-07-13T06:32:52;11.95;;;8.73;;
79697;SDS011;69168;42.708;23.286;2023-07-13T06:35:18;16.98;;;11.52;;
79697;SDS011;69168;42.708;23.286;2023-07-13T06:37:44;18.10;;;11.40;;
79697;SDS011;69168;42.708;23.286;2023-07-13T06:40:09;16.38;;;11.30;;
79697;SDS011;69168;42.708;23.286;2023-07-13T06:42:35;23.73;;;15.18;;
79697;SDS011;69168;42.708;23.286;2023-07-13T06:45:01;18.73;;;11.80;;
79697;SDS011;69168;42.708;23.286;2023-07-13T06:47:26;16.42;;;11.40;;
79697;SDS011;69168;42.708;23.286;2023-07-13T06:49:52;20.20;;;12.43;;
79697;SDS011;69168;42.708;23.286;2023-07-13T06:52:17;15.70;;;10.68;;
79697;SDS011;69168;42.708;23.286;2023-07-13T06:54:42;25.35;;;15.23;;
79697;SDS011;69168;42.708;23.286;2023-07-13T06:57:08;24.85;;;16.75;;
79697;SDS011;69168;42.708;23.286;2023-07-13T06:59:34;14.05;;;9.80;;
79697;SDS011;69168;42.708;23.286;2023-07-13T07:01:59;16.40;;;10.70;;
79697;SDS011;69168;42.708;23.286;2023-07-13T07:04:24;15.52;;;10.80;;
79697;SDS011;69168;42.708;23.286;2023-07-13T07:06:50;16.67;;;10.38;;
79697;SDS011;69168;42.708;23.286;2023-07-13T07:09:15;19.60;;;10.30;;
79697;SDS011;69168;42.708;23.286;2023-07-13T07:11:41;16.65;;;9.25;;
79697;SDS011;69168;42.708;23.286;2023-07-13T07:14:07;12.40;;;9.25;;
79697;SDS011;69168;42.708;23.286;2023-07-13T07:16:33;18.40;;;10.65;;
79697;SDS011;69168;42.708;23.286;2023-07-13T07:18:58;19.45;;;10.52;;
79697;SDS011;69168;42.708;23.286;2023-07-13T07:21:23;19.85;;;9.98;;
79697;SDS011;69168;42.708;23.286;2023-07-13T07:23:49;12.85;;;9.00;;
79697;SDS011;69168;42.708;23.286;2023-07-13T07:26:14;14.07;;;9.55;;
79697;SDS011;69168;42.708;23.286;2023-07-13T07:28:40;15.15;;;10.35;;
79697;SDS011;69168;42.708;23.286;2023-07-13T07:31:05;15.73;;;9.57;;
79697;SDS011;69168;42.708;23.286;2023-07-13T07:33:32;14.88;;;9.40;;
79697;SDS011;69168;42.708;23.286;2023-07-13T07:35:58;17.73;;;10.55;;
79697;SDS011;69168;42.708;23.286;2023-07-13T07:38:24;15.38;;;11.35;;
79697;SDS011;69168;42.708;23.286;2023-07-13T07:40:49;17.02;;;10.98;;
79697;SDS011;69168;42.708;23.286;2023-07-13T07:43:15;17.33;;;12.75;;
79697;SDS011;69168;42.708;23.286;2023-07-13T07:45:40;16.58;;;10.98;;
79697;SDS011;69168;42.708;23.286;2023-07-13T07:48:06;17.73;;;11.80;;
79697;SDS011;69168;42.708;23.286;2023-07-13T07:50:34;17.55;;;11.02;;
79697;SDS011;69168;42.708;23.286;2023-07-13T07:53:00;18.10;;;11.75;;
79697;SDS011;69168;42.708;23.286;2023-07-13T07:55:27;17.38;;;11.50;;
79697;SDS011;69168;42.708;23.286;2023-07-13T07:57:53;17.48;;;11.35;;
79697;SDS011;69168;42.708;23.286;2023-07-13T08:00:18;13.90;;;10.32;;
79697;SDS011;69168;42.708;23.286;2023-07-13T08:02:44;17.15;;;13.05;;
79697;SDS011;69168;42.708;23.286;2023-07-13T08:05:10;25.92;;;14.13;;
79697;SDS011;69168;42.708;23.286;2023-07-13T08:07:39;18.75;;;13.30;;
79697;SDS011;69168;42.708;23.286;2023-07-13T08:10:07;17.60;;;13.13;;
79697;SDS011;69168;42.708;23.286;2023-07-13T08:12:37;14.32;;;11.13;;
79697;SDS011;69168;42.708;23.286;2023-07-13T08:15:03;15.30;;;9.70;;
79697;SDS011;69168;42.708;23.286;2023-07-13T08:17:30;18.25;;;12.07;;
79697;SDS011;69168;42.708;23.286;2023-07-13T08:19:56;16.70;;;10.57;;
79697;SDS011;69168;42.708;23.286;2023-07-13T08:22:21;18.88;;;10.52;;
79697;SDS011;69168;42.708;23.286;2023-07-13T08:24:47;16.35;;;10.75;;
79697;SDS011;69168;42.708;23.286;2023-07-13T08:27:20;18.48;;;12.45;;
79697;SDS011;69168;42.708;23.286;2023-07-13T08:29:45;18.67;;;11.85;;
79697;SDS011;69168;42.708;23.286;2023-07-13T08:32:13;19.30;;;11.27;;
79697;SDS011;69168;42.708;23.286;2023-07-13T08:34:38;17.42;;;11.18;;
79697;SDS011;69168;42.708;23.286;2023-07-13T08:37:04;17.58;;;11.23;;
79697;SDS011;69168;42.708;23.286;2023-07-13T08:39:31;19.95;;;14.98;;
79697;SDS011;69168;42.708;23.286;2023-07-13T08:44:37;13.43;;;9.95;;
79697;SDS011;69168;42.708;23.286;2023-07-13T08:47:06;19.85;;;11.25;;
79697;SDS011;69168;42.708;23.286;2023-07-13T08:49:34;11.48;;;9.50;;
79697;SDS011;69168;42.708;23.286;2023-07-13T08:52:11;15.07;;;10.13;;
79697;SDS011;69168;42.708;23.286;2023-07-13T08:54:56;13.10;;;9.85;;
79697;SDS011;69168;42.708;23.286;2023-07-13T08:57:30;13.75;;;9.63;;
79697;SDS011;69168;42.708;23.286;2023-07-13T08:59:58;15.85;;;9.25;;
79697;SDS011;69168;42.708;23.286;2023-07-13T09:02:27;15.27;;;8.93;;
79697;SDS011;69168;42.708;23.286;2023-07-13T09:05:08;14.90;;;10.23;;
79697;SDS011;69168;42.708;23.286;2023-07-13T09:15:17;23.13;;;13.18;;
79697;SDS011;69168;42.708;23.286;2023-07-13T09:17:50;17.30;;;10.95;;
79697;SDS011;69168;42.708;23.286;2023-07-13T09:20:28;16.52;;;10.18;;
79697;SDS011;69168;42.708;23.286;2023-07-13T09:22:59;9.95;;;8.55;;
79697;SDS011;69168;42.708;23.286;2023-07-13T09:27:58;17.70;;;9.13;;
79697;SDS011;69168;42.708;23.286;2023-07-13T09:30:37;15.43;;;8.73;;
79697;SDS011;69168;42.708;23.286;2023-07-13T09:33:09;13.32;;;8.07;;
79697;SDS011;69168;42.708;23.286;2023-07-13T09:35:35;12.45;;;8.13;;
79697;SDS011;69168;42.708;23.286;2023-07-13T09:40:55;10.27;;;7.80;;
79697;SDS011;69168;42.708;23.286;2023-07-13T09:43:21;13.27;;;7.85;;
79697;SDS011;69168;42.708;23.286;2023-07-13T09:45:47;17.45;;;8.60;;
79697;SDS011;69168;42.708;23.286;2023-07-13T09:48:13;15.38;;;8.63;;
79697;SDS011;69168;42.708;23.286;2023-07-13T09:50:41;12.98;;;7.93;;
79697;SDS011;69168;42.708;23.286;2023-07-13T09:53:14;10.52;;;6.15;;
79697;SDS011;69168;42.708;23.286;2023-07-13T09:55:47;10.52;;;5.40;;
79697;SDS011;69168;42.708;23.286;2023-07-13T09:58:20;6.65;;;4.80;;
79697;SDS011;69168;42.708;23.286;2023-07-13T10:00:58;8.20;;;4.28;;
79697;SDS011;69168;42.708;23.286;2023-07-13T10:03:26;11.48;;;5.07;;
79697;SDS011;69168;42.708;23.286;2023-07-13T10:05:53;6.22;;;4.72;;
79697;SDS011;69168;42.708;23.286;2023-07-13T10:11:02;7.68;;;4.95;;
79697;SDS011;69168;42.708;23.286;2023-07-13T10:16:26;8.07;;;4.95;;
79697;SDS011;69168;42.708;23.286;2023-07-13T10:18:58;9.48;;;5.35;;
79697;SDS011;69168;42.708;23.286;2023-07-13T10:21:28;9.98;;;4.43;;
79697;SDS011;69168;42.708;23.286;2023-07-13T10:24:03;9.85;;;5.22;;
79697;SDS011;69168;42.708;23.286;2023-07-13T10:26:36;7.88;;;5.50;;
79697;SDS011;69168;42.708;23.286;2023-07-13T10:29:09;12.70;;;4.78;;
79697;SDS011;69168;42.708;23.286;2023-07-13T10:31:39;8.30;;;4.88;;
79697;SDS011;69168;42.708;23.286;2023-07-13T10:34:09;7.18;;;4.90;;
79697;SDS011;69168;42.708;23.286;2023-07-13T10:36:40;10.98;;;4.90;;
79697;SDS011;69168;42.708;23.286;2023-07-13T10:39:26;6.00;;;4.97;;
79697;SDS011;69168;42.708;23.286;2023-07-13T10:41:54;6.47;;;4.57;;
79697;SDS011;69168;42.708;23.286;2023-07-13T10:44:29;6.53;;;4.22;;
79697;SDS011;69168;42.708;23.286;2023-07-13T10:46:58;5.00;;;4.10;;
79697;SDS011;69168;42.708;23.286;2023-07-13T10:49:31;6.95;;;4.65;;
79697;SDS011;69168;42.708;23.286;2023-07-13T10:51:58;8.43;;;4.57;;
79697;SDS011;69168;42.708;23.286;2023-07-13T10:56:50;4.80;;;4.30;;
79697;SDS011;69168;42.708;23.286;2023-07-13T10:59:18;8.00;;;4.47;;
79697;SDS011;69168;42.708;23.286;2023-07-13T11:01:57;10.65;;;4.95;;
79697;SDS011;69168;42.708;23.286;2023-07-13T11:04:40;6.53;;;4.38;;
79697;SDS011;69168;42.708;23.286;2023-07-13T11:12:09;6.82;;;4.43;;
79697;SDS011;69168;42.708;23.286;2023-07-13T11:25:24;10.18;;;4.95;;
79697;SDS011;69168;42.708;23.286;2023-07-13T11:30:46;10.82;;;5.28;;
79697;SDS011;69168;42.708;23.286;2023-07-13T11:36:04;7.00;;;4.70;;
79697;SDS011;69168;42.708;23.286;2023-07-13T11:38:37;7.45;;;5.75;;
79697;SDS011;69168;42.708;23.286;2023-07-13T11:41:15;9.10;;;5.07;;
79697;SDS011;69168;42.708;23.286;2023-07-13T11:43:48;9.10;;;4.88;;
79697;SDS011;69168;42.708;23.286;2023-07-13T11:46:15;9.35;;;5.03;;
79697;SDS011;69168;42.708;23.286;2023-07-13T11:48:52;6.50;;;4.90;;
79697;SDS011;69168;42.708;23.286;2023-07-13T11:51:22;9.43;;;5.10;;
79697;SDS011;69168;42.708;23.286;2023-07-13T11:53:54;9.48;;;4.68;;
79697;SDS011;69168;42.708;23.286;2023-07-13T11:56:22;9.05;;;5.30;;
79697;SDS011;69168;42.708;23.286;2023-07-13T11:58:53;9.52;;;5.63;;
79697;SDS011;69168;42.708;23.286;2023-07-13T12:01:22;9.82;;;5.18;;
79697;SDS011;69168;42.708;23.286;2023-07-13T12:03:57;6.93;;;4.70;;
79697;SDS011;69168;42.708;23.286;2023-07-13T12:06:29;7.38;;;4.93;;
79697;SDS011;69168;42.708;23.286;2023-07-13T12:09:00;9.43;;;5.13;;
79697;SDS011;69168;42.708;23.286;2023-07-13T12:11:28;8.05;;;5.03;;
79697;SDS011;69168;42.708;23.286;2023-07-13T12:13:54;6.35;;;4.63;;
79697;SDS011;69168;42.708;23.286;2023-07-13T12:18:53;10.80;;;5.07;;
79697;SDS011;69168;42.708;23.286;2023-07-13T12:21:22;9.50;;;4.82;;
79697;SDS011;69168;42.708;23.286;2023-07-13T12:23:54;9.60;;;5.07;;
79697;SDS011;69168;42.708;23.286;2023-07-13T12:26:20;6.97;;;4.53;;
79697;SDS011;69168;42.708;23.286;2023-07-13T12:33:48;5.53;;;4.07;;
79697;SDS011;69168;42.708;23.286;2023-07-13T12:36:22;7.15;;;4.72;;
79697;SDS011;69168;42.708;23.286;2023-07-13T12:38:47;9.82;;;5.35;;
79697;SDS011;69168;42.708;23.286;2023-07-13T12:41:13;7.93;;;5.45;;
79697;SDS011;69168;42.708;23.286;2023-07-13T12:43:40;12.50;;;4.97;;
79697;SDS011;69168;42.708;23.286;2023-07-13T12:46:24;10.30;;;4.55;;
79697;SDS011;69168;42.708;23.286;2023-07-13T12:48:54;7.32;;;4.28;;
79697;SDS011;69168;42.708;23.286;2023-07-13T12:51:24;11.30;;;4.55;;
79697;SDS011;69168;42.708;23.286;2023-07-13T12:53:55;8.07;;;4.25;;
79697;SDS011;69168;42.708;23.286;2023-07-13T12:56:26;9.27;;;4.90;;
79697;SDS011;69168;42.708;23.286;2023-07-13T12:58:56;10.27;;;4.85;;
79697;SDS011;69168;42.708;23.286;2023-07-13T13:01:25;7.88;;;4.32;;
79697;SDS011;69168;42.708;23.286;2023-07-13T13:03:53;10.98;;;4.50;;
79697;SDS011;69168;42.708;23.286;2023-07-13T13:08:49;7.50;;;4.30;;
79697;SDS011;69168;42.708;23.286;2023-07-13T13:11:17;10.00;;;3.78;;
79697;SDS011;69168;42.708;23.286;2023-07-13T13:13:43;7.25;;;4.38;;
79697;SDS011;69168;42.708;23.286;2023-07-13T13:18:35;9.70;;;4.68;;
79697;SDS011;69168;42.708;23.286;2023-07-13T13:21:01;6.28;;;3.92;;
79697;SDS011;69168;42.708;23.286;2023-07-13T13:23:26;8.85;;;4.28;;
79697;SDS011;69168;42.708;23.286;2023-07-13T13:25:52;7.35;;;4.78;;
79697;SDS011;69168;42.708;23.286;2023-07-13T13:28:21;8.90;;;4.40;;
79697;SDS011;69168;42.708;23.286;2023-07-13T13:30:47;8.50;;;4.57;;
79697;SDS011;69168;42.708;23.286;2023-07-13T13:33:14;10.63;;;4.20;;
79697;SDS011;69168;42.708;23.286;2023-07-13T13:35:41;9.73;;;5.07;;
79697;SDS011;69168;42.708;23.286;2023-07-13T13:38:18;10.40;;;4.60;;
79697;SDS011;69168;42.708;23.286;2023-07-13T13:40:46;11.15;;;4.88;;
79697;SDS011;69168;42.708;23.286;2023-07-13T13:43:24;7.90;;;4.15;;
79697;SDS011;69168;42.708;23.286;2023-07-13T13:45:55;5.78;;;4.00;;
79697;SDS011;69168;42.708;23.286;2023-07-13T13:48:26;9.13;;;3.90;;
79697;SDS011;69168;42.708;23.286;2023-07-13T13:50:56;9.10;;;4.10;;
79697;SDS011;69168;42.708;23.286;2023-07-13T13:53:23;7.32;;;4.72;;
79697;SDS011;69168;42.708;23.286;2023-07-13T13:55:49;7.30;;;4.30;;
79697;SDS011;69168;42.708;23.286;2023-07-13T13:58:15;11.90;;;4.70;;
79697;SDS011;69168;42.708;23.286;2023-07-13T14:00:41;8.77;;;4.65;;
79697;SDS011;69168;42.708;23.286;2023-07-13T14:03:14;7.10;;;4.25;;
79697;SDS011;69168;42.708;23.286;2023-07-13T14:05:43;5.90;;;4.90;;
79697;SDS011;69168;42.708;23.286;2023-07-13T14:08:18;8.55;;;4.38;;
79697;SDS011;69168;42.708;23.286;2023-07-13T14:10:46;8.07;;;4.35;;
79697;SDS011;69168;42.708;23.286;2023-07-13T14:13:21;10.10;;;4.80;;
79697;SDS011;69168;42.708;23.286;2023-07-13T14:15:51;10.23;;;4.18;;
79697;SDS011;69168;42.708;23.286;2023-07-13T14:18:18;6.75;;;4.55;;
79697;SDS011;69168;42.708;23.286;2023-07-13T14:20:44;10.57;;;4.70;;
79697;SDS011;69168;42.708;23.286;2023-07-13T14:23:10;10.40;;;4.80;;
79697;SDS011;69168;42.708;23.286;2023-07-13T14:25:37;10.18;;;4.82;;
79697;SDS011;69168;42.708;23.286;2023-07-13T14:28:15;7.93;;;4.10;;
79697;SDS011;69168;42.708;23.286;2023-07-13T14:30:42;7.07;;;4.35;;
79697;SDS011;69168;42.708;23.286;2023-07-13T14:33:08;8.50;;;4.50;;
79697;SDS011;69168;42.708;23.286;2023-07-13T14:35:36;10.38;;;4.80;;
79697;SDS011;69168;42.708;23.286;2023-07-13T14:38:02;8.52;;;4.32;;
79697;SDS011;69168;42.708;23.286;2023-07-13T14:40:28;8.82;;;4.68;;
79697;SDS011;69168;42.708;23.286;2023-07-13T14:42:55;8.80;;;4.43;;
79697;SDS011;69168;42.708;23.286;2023-07-13T14:45:21;8.73;;;4.88;;
79697;SDS011;69168;42.708;23.286;2023-07-13T14:47:46;9.73;;;4.53;;
79697;SDS011;69168;42.708;23.286;2023-07-13T14:50:17;7.43;;;4.38;;
79697;SDS011;69168;42.708;23.286;2023-07-13T14:52:44;8.70;;;4.40;;
79697;SDS011;69168;42.708;23.286;2023-07-13T14:55:13;8.80;;;4.35;;
79697;SDS011;69168;42.708;23.286;2023-07-13T14:57:40;7.05;;;4.40;;
79697;SDS011;69168;42.708;23.286;2023-07-13T15:00:19;7.85;;;4.53;;
79697;SDS011;69168;42.708;23.286;2023-07-13T15:02:53;8.60;;;4.93;;
79697;SDS011;69168;42.708;23.286;2023-07-13T15:05:22;7.70;;;4.80;;
79697;SDS011;69168;42.708;23.286;2023-07-13T15:07:50;9.82;;;4.65;;
79697;SDS011;69168;42.708;23.286;2023-07-13T15:10:20;8.32;;;4.45;;
79697;SDS011;69168;42.708;23.286;2023-07-13T15:12:50;9.73;;;4.50;;
79697;SDS011;69168;42.708;23.286;2023-07-13T15:15:22;7.60;;;4.28;;
79697;SDS011;69168;42.708;23.286;2023-07-13T15:17:48;5.97;;;4.18;;
79697;SDS011;69168;42.708;23.286;2023-07-13T15:20:27;6.72;;;4.28;;
79697;SDS011;69168;42.708;23.286;2023-07-13T15:22:55;7.43;;;4.43;;
79697;SDS011;69168;42.708;23.286;2023-07-13T15:25:23;5.72;;;4.28;;
79697;SDS011;69168;42.708;23.286;2023-07-13T15:27:50;8.55;;;4.50;;
79697;SDS011;69168;42.708;23.286;2023-07-13T15:30:20;6.93;;;4.53;;
79697;SDS011;69168;42.708;23.286;2023-07-13T15:32:46;9.23;;;4.72;;
79697;SDS011;69168;42.708;23.286;2023-07-13T15:35:14;6.05;;;4.07;;
79697;SDS011;69168;42.708;23.286;2023-07-13T15:37:43;8.25;;;4.55;;